Elberfeld, Indiana
Current Conditions -  °F | °C
As of 11:09 AM on Monday 22 Dec 2014 (Local Time) from KEVV Reporting Station
Overcast Overcast  
Wind Chill: 50°   Ceiling: 3800
Heat Index: 50°   Visibility: 9mi
Dew Point: 43°   Wind: 9mph
Humidity: 77%   Direction: 130°SE
Pressure: 29.84"   Gusts: NA
Location:  38.16°N, 87.45°W
Report Text: KEVV 221709Z 13008KT 9SM SCT028 BKN038 OVC085 10/06 A2984 RMK AO2 T01000061
Loading
Personal Weather Stations






























Interactive Weather Map New forecast layout! Learn more

10-Day Weather Forecast

Advertisements
Track Severe Weather on mobile